createdAt,value
2018-01-29T00:00:14.628Z,28.95
2018-01-29T00:02:41.613Z,30.50
2018-01-29T00:05:08.188Z,31.33
2018-01-29T00:07:34.692Z,29.25
2018-01-29T00:10:01.280Z,29.77
2018-01-29T00:12:28.059Z,28.40
2018-01-29T00:14:54.612Z,28.12
2018-01-29T00:17:22.239Z,26.12
2018-01-29T00:19:49.264Z,30.45
2018-01-29T00:22:15.764Z,27.08
2018-01-29T00:24:42.268Z,31.73
2018-01-29T00:27:08.588Z,31.20
2018-01-29T00:29:35.087Z,31.70
2018-01-29T00:32:01.611Z,29.45
2018-01-29T00:34:28.091Z,31.33
2018-01-29T00:36:55.008Z,32.20
2018-01-29T00:39:21.543Z,32.70
2018-01-29T00:41:48.114Z,35.33
2018-01-29T00:44:14.504Z,34.10
2018-01-29T00:46:41.080Z,34.05
2018-01-29T00:49:07.604Z,34.72
2018-01-29T00:51:34.212Z,33.60
2018-01-29T00:54:00.833Z,36.60
2018-01-29T00:56:28.441Z,35.67
2018-01-29T00:58:55.889Z,37.05
2018-01-29T01:01:22.526Z,34.50
2018-01-29T01:03:48.967Z,36.10
2018-01-29T01:06:15.556Z,34.92
2018-01-29T01:08:42.095Z,32.28
2018-01-29T01:11:08.899Z,40.08
2018-01-29T01:13:35.736Z,30.25
2018-01-29T01:16:02.320Z,29.58
2018-01-29T01:18:28.768Z,29.30
2018-01-29T01:20:55.397Z,27.70
2018-01-29T01:23:21.943Z,26.20
2018-01-29T01:25:48.493Z,29.75
2018-01-29T01:28:15.012Z,26.30
2018-01-29T01:30:41.500Z,28.77
2018-01-29T01:33:08.267Z,28.23
2018-01-29T01:35:34.593Z,27.77
2018-01-29T01:38:01.095Z,29.73
2018-01-29T01:40:27.612Z,29.85
2018-01-29T01:42:54.796Z,33.03
2018-01-29T01:45:21.608Z,29.42
2018-01-29T01:47:48.159Z,40.63
2018-01-29T01:50:14.764Z,30.33
2018-01-29T01:52:41.483Z,27.50
2018-01-29T01:55:08.123Z,27.30
2018-01-29T01:57:34.676Z,28.42
2018-01-29T02:13:19.820Z,23.17
2018-01-29T02:15:46.452Z,25.77
2018-01-29T02:18:12.907Z,25.85
2018-01-29T02:20:40.756Z,27.55
2018-01-29T02:23:07.228Z,27.30
2018-01-29T02:25:33.792Z,28.33
2018-01-29T02:28:00.267Z,27.00
2018-01-29T02:30:26.825Z,26.40
2018-01-29T02:32:53.757Z,27.70
2018-01-29T02:35:20.228Z,30.27
2018-01-29T02:37:47.468Z,29.48
2018-01-29T02:40:13.891Z,32.97
2018-01-29T02:42:40.755Z,31.87
2018-01-29T02:45:07.369Z,31.45
2018-01-29T02:47:33.889Z,33.70
2018-01-29T02:50:00.732Z,28.98
2018-01-29T02:52:27.220Z,29.00
2018-01-29T02:54:53.735Z,35.60
2018-01-29T02:57:20.276Z,33.30
2018-01-29T02:59:46.804Z,30.17
2018-01-29T03:02:13.952Z,34.15
2018-01-29T03:04:40.463Z,32.45
2018-01-29T03:07:07.055Z,32.25
2018-01-29T03:09:33.643Z,34.95
2018-01-29T03:12:00.128Z,30.00
2018-01-29T03:14:26.642Z,31.00
2018-01-29T03:16:53.427Z,31.85
2018-01-29T03:19:20.912Z,31.52
2018-01-29T03:21:47.500Z,30.92
2018-01-29T03:24:14.279Z,33.58
2018-01-29T03:26:40.883Z,29.35
2018-01-29T03:29:08.378Z,34.17
2018-01-29T03:31:35.116Z,33.35
2018-01-29T03:34:01.732Z,29.87
2018-01-29T03:36:28.494Z,30.17
2018-01-29T03:38:55.132Z,28.58
2018-01-29T03:41:21.612Z,25.85
2018-01-29T03:43:48.407Z,30.48
2018-01-29T03:46:14.976Z,26.70
2018-01-29T03:48:41.799Z,29.37
2018-01-29T03:51:08.349Z,35.75
2018-01-29T03:53:35.111Z,28.87
2018-01-29T03:56:02.615Z,31.70
2018-01-29T03:58:30.197Z,27.40
2018-01-29T04:00:57.201Z,32.05
2018-01-29T04:03:23.593Z,32.35
2018-01-29T04:05:50.051Z,34.90
2018-01-29T04:08:16.516Z,31.62
2018-01-29T04:10:44.959Z,32.63
2018-01-29T04:13:11.435Z,34.83
2018-01-29T04:15:38.316Z,31.15
2018-01-29T04:18:04.802Z,25.98
2018-01-29T04:20:31.144Z,30.35
2018-01-29T04:22:57.598Z,30.83
2018-01-29T04:25:24.108Z,35.35
2018-01-29T04:27:50.735Z,39.17
2018-01-29T04:30:17.176Z,41.05
2018-01-29T04:32:43.804Z,42.95
2018-01-29T04:35:11.233Z,47.53
2018-01-29T04:37:37.939Z,46.58
2018-01-29T04:40:04.579Z,48.22
2018-01-29T04:42:31.093Z,46.72
2018-01-29T04:44:57.715Z,45.22
2018-01-29T04:47:24.207Z,47.33
2018-01-29T04:49:50.671Z,40.80
2018-01-29T04:52:17.247Z,42.35
2018-01-29T04:54:44.374Z,37.60
2018-01-29T04:57:10.968Z,41.28
2018-01-29T04:59:38.088Z,34.95
2018-01-29T05:02:06.116Z,36.03
2018-01-29T05:04:33.704Z,36.80
2018-01-29T05:07:00.228Z,36.15
2018-01-29T05:09:26.672Z,39.58
2018-01-29T05:11:53.199Z,36.50
2018-01-29T05:14:20.035Z,35.55
2018-01-29T05:16:46.676Z,39.67
2018-01-29T05:19:13.411Z,39.45
2018-01-29T05:21:40.243Z,40.58
2018-01-29T05:24:06.880Z,39.28
2018-01-29T05:26:33.319Z,40.40
2018-01-29T05:28:59.775Z,39.15
2018-01-29T05:31:26.721Z,40.25
2018-01-29T05:33:53.268Z,40.00
2018-01-29T05:36:25.863Z,40.55
2018-01-29T05:38:53.420Z,40.42
2018-01-29T05:41:20.004Z,42.25
2018-01-29T05:43:46.840Z,40.10
2018-01-29T05:46:13.408Z,41.65
2018-01-29T05:48:39.856Z,39.78
2018-01-29T05:51:07.237Z,40.33
2018-01-29T05:53:33.932Z,38.58
2018-01-29T05:56:00.342Z,37.40
2018-01-29T05:58:27.333Z,39.25
2018-01-29T06:00:53.830Z,33.40
2018-01-29T06:03:20.264Z,37.10
2018-01-29T06:05:46.636Z,36.55
2018-01-29T06:08:13.091Z,37.95
2018-01-29T06:10:39.866Z,34.00
2018-01-29T06:13:06.392Z,36.25
2018-01-29T06:15:33.425Z,34.03
2018-01-29T06:18:00.130Z,37.95
2018-01-29T06:20:27.663Z,32.80
2018-01-29T06:22:54.164Z,27.90
2018-01-29T06:25:20.622Z,25.58
2018-01-29T06:27:47.602Z,29.30
2018-01-29T06:30:14.125Z,27.73
2018-01-29T06:32:40.519Z,28.30
2018-01-29T06:35:07.435Z,29.55
2018-01-29T06:37:33.915Z,30.80
2018-01-29T06:40:00.440Z,33.28
2018-01-29T06:42:27.037Z,34.40
2018-01-29T06:44:53.572Z,33.45
2018-01-29T06:47:20.140Z,36.72
2018-01-29T06:49:46.593Z,36.60
2018-01-29T06:52:13.443Z,39.55
2018-01-29T06:54:39.964Z,39.97
2018-01-29T06:57:06.484Z,38.08
2018-01-29T06:59:33.127Z,41.08
2018-01-29T07:02:01.604Z,41.72
2018-01-29T07:04:28.548Z,39.72
2018-01-29T07:06:55.419Z,45.47
2018-01-29T07:09:22.872Z,44.30
2018-01-29T07:11:49.435Z,48.35
2018-01-29T07:14:15.833Z,46.95
2018-01-29T07:16:43.425Z,50.50
2018-01-29T07:19:09.968Z,50.88
2018-01-29T07:21:36.767Z,54.90
2018-01-29T07:24:04.032Z,99.80
2018-01-29T07:26:30.927Z,60.03
2018-01-29T07:28:57.595Z,65.85
2018-01-29T07:31:24.454Z,66.07
2018-01-29T07:33:51.032Z,61.45
2018-01-29T07:36:17.565Z,65.45
2018-01-29T07:38:44.073Z,62.22
2018-01-29T07:41:10.584Z,52.00
2018-01-29T07:43:37.129Z,49.33
2018-01-29T07:46:03.673Z,46.43
2018-01-29T07:48:30.072Z,46.27
2018-01-29T07:50:57.044Z,48.87
2018-01-29T07:53:23.559Z,47.73
2018-01-29T07:55:50.447Z,48.60
2018-01-29T07:58:17.114Z,48.20
2018-01-29T08:00:43.525Z,50.17
2018-01-29T08:03:10.020Z,47.83
2018-01-29T08:05:36.844Z,46.87
2018-01-29T08:08:03.396Z,43.57
2018-01-29T08:10:30.015Z,45.00
2018-01-29T08:12:56.506Z,46.50
2018-01-29T08:15:23.081Z,43.67
2018-01-29T08:17:49.795Z,48.13
2018-01-29T08:20:16.385Z,48.87
2018-01-29T08:22:42.728Z,46.97
2018-01-29T08:25:09.824Z,47.10
2018-01-29T08:27:36.411Z,47.73
2018-01-29T08:30:02.860Z,46.13
2018-01-29T08:32:29.737Z,46.73
2018-01-29T08:34:56.200Z,45.37
2018-01-29T08:37:23.160Z,44.80
2018-01-29T08:39:49.512Z,42.57
2018-01-29T08:42:16.102Z,42.77
2018-01-29T08:44:42.692Z,40.77
2018-01-29T08:47:09.277Z,41.50
2018-01-29T08:49:35.829Z,39.40
2018-01-29T09:05:21.352Z,43.10
2018-01-29T09:07:47.922Z,44.93
2018-01-29T09:10:14.337Z,45.77
2018-01-29T09:12:41.197Z,46.47
2018-01-29T09:15:07.720Z,47.77
2018-01-29T09:17:34.369Z,44.77
2018-01-29T09:20:00.858Z,41.43
2018-01-29T09:22:27.708Z,41.37
2018-01-29T09:24:54.237Z,40.97
2018-01-29T09:27:21.081Z,41.20
2018-01-29T09:29:47.614Z,38.60
2018-01-29T09:32:14.021Z,29.93
2018-01-29T09:34:40.714Z,30.00
2018-01-29T09:37:07.523Z,28.60
2018-01-29T09:39:34.413Z,30.13
2018-01-29T09:42:00.857Z,32.27
2018-01-29T09:44:27.745Z,30.00
2018-01-29T09:46:54.534Z,33.13
2018-01-29T09:49:21.396Z,31.50
2018-01-29T09:51:47.923Z,31.90
2018-01-29T09:54:14.818Z,27.73
2018-01-29T09:56:41.352Z,25.67
2018-01-29T09:59:08.157Z,27.37
2018-01-29T10:01:34.658Z,26.83
2018-01-29T10:04:01.593Z,22.30
2018-01-29T10:06:28.033Z,21.83
2018-01-29T10:08:54.915Z,14.73
2018-01-29T10:11:21.708Z,12.50
2018-01-29T10:13:48.323Z,12.80
2018-01-29T10:16:14.800Z,14.20
2018-01-29T10:18:41.344Z,11.27
2018-01-29T10:21:07.976Z,11.93
2018-01-29T10:23:34.696Z,10.57
2018-01-29T10:26:01.235Z,11.67
2018-01-29T10:28:27.799Z,11.37
2018-01-29T10:30:54.292Z,13.70
2018-01-29T10:33:20.897Z,12.30
2018-01-29T10:35:47.380Z,13.37
2018-01-29T10:38:13.993Z,12.23
2018-01-29T10:40:40.744Z,12.83
2018-01-29T10:43:07.560Z,11.80
2018-01-29T10:45:34.178Z,14.27
2018-01-29T10:48:00.667Z,14.27
2018-01-29T10:50:28.384Z,15.00
2018-01-29T10:52:55.044Z,16.87
2018-01-29T10:55:21.508Z,14.80
2018-01-29T10:57:47.879Z,16.10
2018-01-29T11:00:15.187Z,15.40
2018-01-29T11:02:41.726Z,14.53
2018-01-29T11:05:08.351Z,17.77
2018-01-29T11:07:34.787Z,16.60
2018-01-29T11:10:01.380Z,13.90
2018-01-29T11:12:28.816Z,14.33
2018-01-29T11:14:55.159Z,15.07
2018-01-29T11:17:21.608Z,13.37
2018-01-29T11:19:48.152Z,15.50
2018-01-29T11:22:14.725Z,14.07
2018-01-29T11:24:41.512Z,14.00
2018-01-29T11:27:08.388Z,13.50
2018-01-29T11:29:34.906Z,13.70
2018-01-29T11:32:01.618Z,14.50
2018-01-29T11:34:29.102Z,14.60
2018-01-29T11:36:55.968Z,16.27
2018-01-29T11:39:22.492Z,17.60
2018-01-29T11:41:49.052Z,16.17
2018-01-29T11:44:15.635Z,15.90
2018-01-29T11:46:42.147Z,14.50
2018-01-29T11:49:08.669Z,14.38
2018-01-29T11:51:35.172Z,15.80
2018-01-29T11:54:01.744Z,15.02
2018-01-29T11:56:28.247Z,18.60
2018-01-29T11:58:54.895Z,15.63
2018-01-29T12:01:21.352Z,15.05
2018-01-29T12:03:47.917Z,15.50
2018-01-29T12:06:14.346Z,12.87
2018-01-29T12:08:41.235Z,12.77
2018-01-29T12:11:07.869Z,13.10
2018-01-29T12:13:34.676Z,13.30
2018-01-29T12:16:01.147Z,13.83
2018-01-29T12:18:28.081Z,53.30
2018-01-29T12:20:54.607Z,18.20
2018-01-29T12:23:21.024Z,15.15
2018-01-29T12:25:47.912Z,12.35
2018-01-29T12:28:14.739Z,13.65
2018-01-29T12:30:41.294Z,14.27
2018-01-29T12:33:07.883Z,13.98
2018-01-29T12:35:34.415Z,14.77
2018-01-29T12:38:00.901Z,13.27
2018-01-29T12:40:27.452Z,12.50
2018-01-29T12:42:53.971Z,17.75
2018-01-29T12:45:20.523Z,12.13
2018-01-29T12:47:47.132Z,12.40
2018-01-29T12:50:13.548Z,11.52
2018-01-29T12:52:40.095Z,11.75
2018-01-29T12:55:06.680Z,11.30
2018-01-29T12:57:33.159Z,11.15
2018-01-29T12:59:59.833Z,10.50
2018-01-29T13:02:26.301Z,11.85
2018-01-29T13:04:52.688Z,11.68
2018-01-29T13:07:19.696Z,9.50
2018-01-29T13:09:46.148Z,9.30
2018-01-29T13:12:12.792Z,11.10
2018-01-29T13:14:39.296Z,11.90
2018-01-29T13:17:05.776Z,10.82
2018-01-29T13:19:32.359Z,11.40
2018-01-29T13:21:58.897Z,11.48
2018-01-29T13:24:25.427Z,10.52
2018-01-29T13:26:51.897Z,11.38
2018-01-29T13:29:18.518Z,16.62
2018-01-29T13:31:44.963Z,10.35
2018-01-29T13:34:11.572Z,9.13
2018-01-29T13:36:38.185Z,10.77
2018-01-29T13:39:04.611Z,11.68
2018-01-29T13:41:31.048Z,10.90
2018-01-29T13:43:57.692Z,11.30
2018-01-29T13:46:24.231Z,9.48
2018-01-29T13:48:51.145Z,11.43
2018-01-29T13:51:18.475Z,11.80
2018-01-29T13:53:45.040Z,11.20
2018-01-29T13:56:11.840Z,13.02
2018-01-29T13:58:38.398Z,14.57
2018-01-29T14:01:04.994Z,10.80
2018-01-29T14:03:32.381Z,12.80
2018-01-29T14:05:58.974Z,13.85
2018-01-29T14:08:25.472Z,13.15
2018-01-29T14:10:52.020Z,13.70
2018-01-29T14:13:18.626Z,11.90
2018-01-29T14:15:45.072Z,10.32
2018-01-29T14:18:11.901Z,11.40
2018-01-29T14:20:38.807Z,10.90
2018-01-29T14:23:06.268Z,10.40
2018-01-29T14:25:32.802Z,13.95
2018-01-29T14:27:59.327Z,12.30
2018-01-29T14:30:25.860Z,12.98
2018-01-29T14:32:52.357Z,12.48
2018-01-29T14:35:19.180Z,11.98
2018-01-29T14:37:45.821Z,14.35
2018-01-29T14:40:12.250Z,14.95
2018-01-29T14:42:39.596Z,14.63
2018-01-29T14:45:06.264Z,16.08
2018-01-29T14:47:32.799Z,19.50
2018-01-29T14:49:59.392Z,16.92
2018-01-29T14:52:25.867Z,14.75
2018-01-29T14:54:52.501Z,14.38
2018-01-29T14:57:18.919Z,15.05
2018-01-29T14:59:45.477Z,17.08
2018-01-29T15:02:12.356Z,14.38
2018-01-29T15:04:39.758Z,16.33
2018-01-29T15:07:06.348Z,16.33
2018-01-29T15:09:33.127Z,16.15
2018-01-29T15:11:59.964Z,15.73
2018-01-29T15:14:26.552Z,14.15
2018-01-29T15:16:53.370Z,15.60
2018-01-29T15:19:19.900Z,14.35
2018-01-29T15:21:46.747Z,17.20
2018-01-29T15:24:13.272Z,15.55
2018-01-29T15:26:39.847Z,16.65
2018-01-29T15:29:06.633Z,18.25
2018-01-29T15:31:34.203Z,17.42
2018-01-29T15:34:00.708Z,21.30
2018-01-29T15:36:27.236Z,21.45
2018-01-29T15:38:53.776Z,25.88
2018-01-29T15:41:20.548Z,23.73
2018-01-29T15:43:47.088Z,24.35
2018-01-29T15:46:13.630Z,22.90
2018-01-29T15:48:40.192Z,23.35
2018-01-29T15:51:06.743Z,21.83
2018-01-29T15:53:33.284Z,17.40
2018-01-29T15:55:59.747Z,16.12
2018-01-29T15:58:26.303Z,17.17
2018-01-29T16:00:53.200Z,15.38
2018-01-29T16:03:19.724Z,20.30
2018-01-29T16:05:46.215Z,15.88
2018-01-29T16:08:12.743Z,17.67
2018-01-29T16:10:40.215Z,17.27
2018-01-29T16:13:07.292Z,14.00
2018-01-29T16:15:33.981Z,15.80
2018-01-29T16:18:00.403Z,16.20
2018-01-29T16:20:29.713Z,16.00
2018-01-29T16:22:56.252Z,17.67
2018-01-29T16:25:22.779Z,18.23
2018-01-29T16:27:49.639Z,17.73
2018-01-29T16:30:16.347Z,18.45
2018-01-29T16:32:43.072Z,18.33
2018-01-29T16:35:09.948Z,18.10
2018-01-29T16:37:36.385Z,23.35
2018-01-29T16:40:03.040Z,16.75
2018-01-29T16:42:29.471Z,20.52
2018-01-29T16:44:55.932Z,20.23
2018-01-29T16:47:22.851Z,19.62
2018-01-29T16:49:49.972Z,20.55
2018-01-29T16:52:16.631Z,20.62
2018-01-29T16:54:43.056Z,20.00
2018-01-29T16:57:09.944Z,18.87
2018-01-29T16:59:36.499Z,21.48
2018-01-29T17:02:03.264Z,26.52
2018-01-29T17:04:29.587Z,22.60
2018-01-29T17:06:56.063Z,19.12
2018-01-29T17:09:22.559Z,21.90
2018-01-29T17:11:49.214Z,19.30
2018-01-29T17:14:15.672Z,19.10
2018-01-29T17:16:42.025Z,19.62
2018-01-29T17:19:08.411Z,23.65
2018-01-29T17:21:35.635Z,20.33
2018-01-29T17:24:02.508Z,20.50
2018-01-29T17:26:29.275Z,22.15
2018-01-29T17:28:55.828Z,22.08
2018-01-29T17:31:22.369Z,25.25
2018-01-29T17:33:48.920Z,27.00
2018-01-29T17:36:15.441Z,24.87
2018-01-29T17:38:41.752Z,34.47
2018-01-29T17:41:08.208Z,34.15
2018-01-29T17:43:34.684Z,34.30
2018-01-29T17:46:01.198Z,34.90
2018-01-29T17:48:27.604Z,36.95
2018-01-29T17:50:54.592Z,38.13
2018-01-29T17:53:21.432Z,39.25
2018-01-29T17:55:48.264Z,42.72
2018-01-29T17:58:14.848Z,39.75
2018-01-29T18:00:41.467Z,41.97
2018-01-29T18:03:07.911Z,35.22
2018-01-29T18:05:34.408Z,34.75
2018-01-29T18:08:00.948Z,36.67
2018-01-29T18:10:28.773Z,38.53
2018-01-29T18:12:55.188Z,35.83
2018-01-29T18:15:21.848Z,40.17
2018-01-29T18:17:49.260Z,40.97
2018-01-29T18:20:16.176Z,43.47
2018-01-29T18:22:42.968Z,37.40
2018-01-29T18:25:09.835Z,38.83
2018-01-29T18:27:36.368Z,37.75
2018-01-29T18:30:02.716Z,33.92
2018-01-29T18:32:29.056Z,32.83
2018-01-29T18:34:55.949Z,35.83
2018-01-29T18:37:22.555Z,32.38
2018-01-29T18:39:49.284Z,31.50
2018-01-29T18:42:15.876Z,30.23
2018-01-29T18:44:42.363Z,29.98
2018-01-29T18:47:09.153Z,29.08
2018-01-29T18:49:35.828Z,26.15
2018-01-29T18:52:02.318Z,31.23
2018-01-29T18:54:28.864Z,24.83
2018-01-29T18:56:55.332Z,29.00
2018-01-29T18:59:21.932Z,35.45
2018-01-29T19:01:49.759Z,36.85
2018-01-29T19:04:16.103Z,32.35
2018-01-29T19:06:42.714Z,27.02
2018-01-29T19:09:09.244Z,22.20
2018-01-29T19:11:35.781Z,25.52
2018-01-29T19:14:02.360Z,24.77
2018-01-29T19:16:29.206Z,22.30
2018-01-29T19:18:56.566Z,22.17
2018-01-29T19:21:22.916Z,21.92
2018-01-29T19:23:49.367Z,21.05
2018-01-29T19:26:16.019Z,24.12
2018-01-29T19:28:42.475Z,20.60
2018-01-29T19:31:08.962Z,21.73
2018-01-29T19:33:35.565Z,19.33
2018-01-29T19:36:02.064Z,19.42
2018-01-29T19:38:28.692Z,22.52
2018-01-29T19:40:55.142Z,23.17
2018-01-29T19:43:21.664Z,25.17
2018-01-29T19:45:48.180Z,27.92
2018-01-29T19:48:14.778Z,25.88
2018-01-29T19:50:41.331Z,23.00
2018-01-29T19:53:07.824Z,22.90
2018-01-29T19:55:34.352Z,25.33
2018-01-29T19:58:01.320Z,18.65
2018-01-29T20:00:28.639Z,22.40
2018-01-29T20:02:55.882Z,24.70
2018-01-29T20:05:22.408Z,29.02
2018-01-29T20:07:49.214Z,34.63
2018-01-29T20:10:16.075Z,45.72
2018-01-29T20:12:42.427Z,50.85
2018-01-29T20:15:09.229Z,55.47
2018-01-29T20:17:35.615Z,49.50
2018-01-29T20:20:02.469Z,44.70
2018-01-29T20:22:29.020Z,43.97
2018-01-29T20:24:55.583Z,46.30
2018-01-29T20:27:22.093Z,50.80
2018-01-29T20:29:48.516Z,50.40
2018-01-29T20:32:15.127Z,46.28
2018-01-29T20:34:41.499Z,45.42
2018-01-29T20:37:07.951Z,44.10
2018-01-29T20:39:34.508Z,46.88
2018-01-29T20:42:00.992Z,43.50
2018-01-29T20:44:27.496Z,36.67
2018-01-29T20:46:55.019Z,41.40
2018-01-29T20:49:21.880Z,36.78
2018-01-29T20:51:48.464Z,30.80
2018-01-29T20:54:14.859Z,30.17
2018-01-29T20:56:41.411Z,28.98
2018-01-29T20:59:08.057Z,27.15
2018-01-29T21:01:34.481Z,26.90
2018-01-29T21:04:01.052Z,34.58
2018-01-29T21:06:27.480Z,34.92
2018-01-29T21:08:54.071Z,40.33
2018-01-29T21:11:20.700Z,41.65
2018-01-29T21:13:47.144Z,40.40
2018-01-29T21:16:13.800Z,45.28
2018-01-29T21:18:40.231Z,52.03
2018-01-29T21:21:06.808Z,55.70
2018-01-29T21:23:34.375Z,49.47
2018-01-29T21:26:00.723Z,55.95
2018-01-29T21:28:27.348Z,56.58
2018-01-29T21:30:54.077Z,46.55
2018-01-29T21:33:21.031Z,48.78
2018-01-29T21:35:47.495Z,43.40
2018-01-29T21:38:14.040Z,38.25
2018-01-29T21:40:40.990Z,37.92
2018-01-29T21:43:07.456Z,38.80
2018-01-29T21:45:34.016Z,40.65
2018-01-29T21:48:00.530Z,39.72
2018-01-29T21:50:27.051Z,40.60
2018-01-29T21:52:53.888Z,37.72
2018-01-29T21:55:20.754Z,39.30
2018-01-29T21:57:47.300Z,43.42
2018-01-29T22:00:13.845Z,38.03
2018-01-29T22:02:41.232Z,38.30
2018-01-29T22:05:07.870Z,40.47
2018-01-29T22:07:34.313Z,47.35
2018-01-29T22:10:01.207Z,61.17
2018-01-29T22:12:27.703Z,60.35
2018-01-29T22:14:54.244Z,80.22
2018-01-29T22:17:21.087Z,78.18
2018-01-29T22:19:47.612Z,81.05
2018-01-29T22:22:14.512Z,81.40
2018-01-29T22:24:41.029Z,75.45
2018-01-29T22:27:07.884Z,87.85
2018-01-29T22:29:34.403Z,113.65
2018-01-29T22:32:00.871Z,93.25
2018-01-29T22:34:27.504Z,84.50
2018-01-29T22:36:53.963Z,79.47
2018-01-29T22:39:20.861Z,77.62
2018-01-29T22:41:47.355Z,83.55
2018-01-29T22:44:14.163Z,77.85
2018-01-29T22:46:40.768Z,70.28
2018-01-29T22:49:07.304Z,70.57
2018-01-29T22:51:33.792Z,66.20
2018-01-29T22:54:00.384Z,65.97
2018-01-29T22:56:27.163Z,63.80
2018-01-29T22:58:53.744Z,71.03
2018-01-29T23:01:20.228Z,89.28
2018-01-29T23:03:46.758Z,74.18
2018-01-29T23:06:13.375Z,271.77
2018-01-29T23:08:39.835Z,76.55
2018-01-29T23:11:06.244Z,110.70
2018-01-29T23:13:32.958Z,105.75
2018-01-29T23:15:59.445Z,86.80
2018-01-29T23:18:26.968Z,92.97
2018-01-29T23:20:53.452Z,85.97
2018-01-29T23:23:20.267Z,65.80
2018-01-29T23:25:48.732Z,54.67
2018-01-29T23:28:15.611Z,58.78
2018-01-29T23:30:43.008Z,70.65
2018-01-29T23:33:09.503Z,64.72
2018-01-29T23:35:36.052Z,51.97
2018-01-29T23:38:02.431Z,49.38
2018-01-29T23:40:29.446Z,58.33
2018-01-29T23:42:56.051Z,63.00
2018-01-29T23:45:23.923Z,50.05
2018-01-29T23:47:50.844Z,45.65
2018-01-29T23:50:17.487Z,55.22
2018-01-29T23:52:44.337Z,44.58
2018-01-29T23:55:10.744Z,45.40
2018-01-29T23:57:37.296Z,47.62
